sensor_id;sensor_type;location;lat;lon;timestamp;P1;durP1;ratioP1;P2;durP2;ratioP2
13321;SDS011;6730;46.248;6.930;2023-09-19T00:01:44;1.98;;;1.00;;
13321;SDS011;6730;46.248;6.930;2023-09-19T00:04:15;1.20;;;0.90;;
13321;SDS011;6730;46.248;6.930;2023-09-19T00:06:44;1.80;;;0.88;;
13321;SDS011;6730;46.248;6.930;2023-09-19T00:09:09;1.15;;;0.90;;
13321;SDS011;6730;46.248;6.930;2023-09-19T00:11:36;5.95;;;1.15;;
13321;SDS011;6730;46.248;6.930;2023-09-19T00:14:03;44.38;;;4.07;;
13321;SDS011;6730;46.248;6.930;2023-09-19T00:16:29;140.63;;;6.03;;
13321;SDS011;6730;46.248;6.930;2023-09-19T00:18:57;5.90;;;1.38;;
13321;SDS011;6730;46.248;6.930;2023-09-19T00:21:24;1.40;;;1.10;;
13321;SDS011;6730;46.248;6.930;2023-09-19T00:23:53;3.53;;;1.17;;
13321;SDS011;6730;46.248;6.930;2023-09-19T00:26:19;1.00;;;0.80;;
13321;SDS011;6730;46.248;6.930;2023-09-19T00:28:46;2.05;;;1.00;;
13321;SDS011;6730;46.248;6.930;2023-09-19T00:31:11;2.00;;;1.13;;
13321;SDS011;6730;46.248;6.930;2023-09-19T00:33:37;1.30;;;1.05;;
13321;SDS011;6730;46.248;6.930;2023-09-19T00:36:03;2.03;;;1.30;;
13321;SDS011;6730;46.248;6.930;2023-09-19T00:38:30;1.88;;;1.05;;
13321;SDS011;6730;46.248;6.930;2023-09-19T00:40:57;2.15;;;1.17;;
13321;SDS011;6730;46.248;6.930;2023-09-19T00:43:24;1.10;;;0.93;;
13321;SDS011;6730;46.248;6.930;2023-09-19T00:45:53;1.15;;;1.00;;
13321;SDS011;6730;46.248;6.930;2023-09-19T00:48:21;1.33;;;0.80;;
13321;SDS011;6730;46.248;6.930;2023-09-19T00:50:47;1.52;;;1.10;;
13321;SDS011;6730;46.248;6.930;2023-09-19T00:53:15;3.25;;;0.90;;
13321;SDS011;6730;46.248;6.930;2023-09-19T00:55:45;1.40;;;1.05;;
13321;SDS011;6730;46.248;6.930;2023-09-19T00:58:12;1.00;;;0.90;;
13321;SDS011;6730;46.248;6.930;2023-09-19T01:00:38;1.73;;;1.10;;
13321;SDS011;6730;46.248;6.930;2023-09-19T01:03:12;1.15;;;0.80;;
13321;SDS011;6730;46.248;6.930;2023-09-19T01:05:39;0.98;;;0.90;;
13321;SDS011;6730;46.248;6.930;2023-09-19T01:08:07;67.95;;;4.68;;
13321;SDS011;6730;46.248;6.930;2023-09-19T01:10:37;31.20;;;2.70;;
13321;SDS011;6730;46.248;6.930;2023-09-19T01:13:29;1.20;;;1.10;;
13321;SDS011;6730;46.248;6.930;2023-09-19T01:16:32;1.17;;;0.90;;
13321;SDS011;6730;46.248;6.930;2023-09-19T01:21:53;1.50;;;1.05;;
13321;SDS011;6730;46.248;6.930;2023-09-19T01:30:48;1.58;;;1.20;;
13321;SDS011;6730;46.248;6.930;2023-09-19T01:33:19;1.33;;;0.85;;
13321;SDS011;6730;46.248;6.930;2023-09-19T01:35:45;1.45;;;0.93;;
13321;SDS011;6730;46.248;6.930;2023-09-19T01:38:10;1.70;;;1.00;;
13321;SDS011;6730;46.248;6.930;2023-09-19T01:43:36;1.15;;;0.90;;
13321;SDS011;6730;46.248;6.930;2023-09-19T01:46:25;1.50;;;1.10;;
13321;SDS011;6730;46.248;6.930;2023-09-19T01:52:11;0.95;;;0.90;;
13321;SDS011;6730;46.248;6.930;2023-09-19T01:54:44;1.05;;;0.75;;
13321;SDS011;6730;46.248;6.930;2023-09-19T01:57:17;1.25;;;1.15;;
13321;SDS011;6730;46.248;6.930;2023-09-19T02:00:05;0.90;;;0.90;;
13321;SDS011;6730;46.248;6.930;2023-09-19T02:02:36;1.15;;;0.95;;
13321;SDS011;6730;46.248;6.930;2023-09-19T02:05:04;1.27;;;0.85;;
13321;SDS011;6730;46.248;6.930;2023-09-19T02:07:30;3.75;;;1.13;;
13321;SDS011;6730;46.248;6.930;2023-09-19T02:10:02;1.08;;;0.98;;
13321;SDS011;6730;46.248;6.930;2023-09-19T02:12:30;1.48;;;0.90;;
13321;SDS011;6730;46.248;6.930;2023-09-19T02:14:59;2.45;;;0.73;;
13321;SDS011;6730;46.248;6.930;2023-09-19T02:17:25;0.77;;;0.77;;
13321;SDS011;6730;46.248;6.930;2023-09-19T02:19:54;1.05;;;0.90;;
13321;SDS011;6730;46.248;6.930;2023-09-19T02:22:23;1.60;;;1.00;;
13321;SDS011;6730;46.248;6.930;2023-09-19T02:24:54;17.60;;;1.45;;
13321;SDS011;6730;46.248;6.930;2023-09-19T02:27:23;2.08;;;0.80;;
13321;SDS011;6730;46.248;6.930;2023-09-19T02:29:49;0.80;;;0.80;;
13321;SDS011;6730;46.248;6.930;2023-09-19T02:32:14;1.40;;;1.00;;
13321;SDS011;6730;46.248;6.930;2023-09-19T02:34:43;1.17;;;0.98;;
13321;SDS011;6730;46.248;6.930;2023-09-19T02:37:09;1.25;;;1.05;;
13321;SDS011;6730;46.248;6.930;2023-09-19T02:39:35;2.63;;;1.08;;
13321;SDS011;6730;46.248;6.930;2023-09-19T02:42:01;0.70;;;0.70;;
13321;SDS011;6730;46.248;6.930;2023-09-19T02:44:30;0.98;;;0.98;;
13321;SDS011;6730;46.248;6.930;2023-09-19T02:46:56;1.08;;;1.00;;
13321;SDS011;6730;46.248;6.930;2023-09-19T02:49:22;0.80;;;0.80;;
13321;SDS011;6730;46.248;6.930;2023-09-19T02:51:50;0.65;;;0.57;;
13321;SDS011;6730;46.248;6.930;2023-09-19T02:54:16;0.90;;;0.80;;
13321;SDS011;6730;46.248;6.930;2023-09-19T02:56:42;1.20;;;0.85;;
13321;SDS011;6730;46.248;6.930;2023-09-19T02:59:08;0.80;;;0.80;;
13321;SDS011;6730;46.248;6.930;2023-09-19T03:01:42;1.15;;;0.88;;
13321;SDS011;6730;46.248;6.930;2023-09-19T03:04:08;0.93;;;0.90;;
13321;SDS011;6730;46.248;6.930;2023-09-19T03:06:37;0.85;;;0.85;;
13321;SDS011;6730;46.248;6.930;2023-09-19T03:09:06;2.03;;;0.80;;
13321;SDS011;6730;46.248;6.930;2023-09-19T03:11:46;0.95;;;0.70;;
13321;SDS011;6730;46.248;6.930;2023-09-19T03:14:12;0.80;;;0.80;;
13321;SDS011;6730;46.248;6.930;2023-09-19T03:16:40;0.70;;;0.70;;
13321;SDS011;6730;46.248;6.930;2023-09-19T03:19:07;1.95;;;0.98;;
13321;SDS011;6730;46.248;6.930;2023-09-19T03:21:35;1.33;;;0.80;;
13321;SDS011;6730;46.248;6.930;2023-09-19T03:24:01;1.20;;;0.80;;
13321;SDS011;6730;46.248;6.930;2023-09-19T03:26:27;0.80;;;0.77;;
13321;SDS011;6730;46.248;6.930;2023-09-19T03:28:53;1.00;;;0.95;;
13321;SDS011;6730;46.248;6.930;2023-09-19T03:31:19;0.60;;;0.60;;
13321;SDS011;6730;46.248;6.930;2023-09-19T03:33:45;0.60;;;0.60;;
13321;SDS011;6730;46.248;6.930;2023-09-19T03:36:12;1.90;;;0.65;;
13321;SDS011;6730;46.248;6.930;2023-09-19T03:38:38;1.60;;;1.05;;
13321;SDS011;6730;46.248;6.930;2023-09-19T03:41:04;0.60;;;0.60;;
13321;SDS011;6730;46.248;6.930;2023-09-19T03:43:29;0.65;;;0.60;;
13321;SDS011;6730;46.248;6.930;2023-09-19T03:46:00;1.10;;;0.80;;
13321;SDS011;6730;46.248;6.930;2023-09-19T03:48:28;0.70;;;0.70;;
13321;SDS011;6730;46.248;6.930;2023-09-19T03:50:54;0.68;;;0.68;;
13321;SDS011;6730;46.248;6.930;2023-09-19T03:53:21;0.95;;;0.88;;
13321;SDS011;6730;46.248;6.930;2023-09-19T03:55:47;0.60;;;0.60;;
13321;SDS011;6730;46.248;6.930;2023-09-19T03:58:12;0.60;;;0.60;;
13321;SDS011;6730;46.248;6.930;2023-09-19T04:00:38;1.45;;;0.47;;
13321;SDS011;6730;46.248;6.930;2023-09-19T04:03:04;0.75;;;0.70;;
13321;SDS011;6730;46.248;6.930;2023-09-19T04:05:31;0.80;;;0.70;;
13321;SDS011;6730;46.248;6.930;2023-09-19T04:07:58;1.10;;;0.65;;
13321;SDS011;6730;46.248;6.930;2023-09-19T04:10:24;1.73;;;0.70;;
13321;SDS011;6730;46.248;6.930;2023-09-19T04:12:53;2.83;;;0.90;;
13321;SDS011;6730;46.248;6.930;2023-09-19T04:15:19;0.80;;;0.70;;
13321;SDS011;6730;46.248;6.930;2023-09-19T04:17:49;0.70;;;0.70;;
13321;SDS011;6730;46.248;6.930;2023-09-19T04:20:19;1.00;;;0.70;;
13321;SDS011;6730;46.248;6.930;2023-09-19T04:22:47;0.95;;;0.68;;
13321;SDS011;6730;46.248;6.930;2023-09-19T04:25:13;4.60;;;1.10;;
13321;SDS011;6730;46.248;6.930;2023-09-19T04:27:39;0.77;;;0.70;;
13321;SDS011;6730;46.248;6.930;2023-09-19T04:30:07;0.60;;;0.60;;
13321;SDS011;6730;46.248;6.930;2023-09-19T04:32:37;0.60;;;0.60;;
13321;SDS011;6730;46.248;6.930;2023-09-19T04:35:05;0.70;;;0.70;;
13321;SDS011;6730;46.248;6.930;2023-09-19T04:37:38;0.77;;;0.77;;
13321;SDS011;6730;46.248;6.930;2023-09-19T04:40:08;0.80;;;0.70;;
13321;SDS011;6730;46.248;6.930;2023-09-19T04:42:40;0.65;;;0.65;;
13321;SDS011;6730;46.248;6.930;2023-09-19T04:45:09;0.70;;;0.70;;
13321;SDS011;6730;46.248;6.930;2023-09-19T04:47:40;1.05;;;0.80;;
13321;SDS011;6730;46.248;6.930;2023-09-19T04:50:11;0.82;;;0.80;;
13321;SDS011;6730;46.248;6.930;2023-09-19T04:52:51;0.60;;;0.60;;
13321;SDS011;6730;46.248;6.930;2023-09-19T04:55:19;0.77;;;0.77;;
13321;SDS011;6730;46.248;6.930;2023-09-19T04:57:47;0.80;;;0.80;;
13321;SDS011;6730;46.248;6.930;2023-09-19T05:00:14;1.13;;;0.80;;
13321;SDS011;6730;46.248;6.930;2023-09-19T05:02:44;1.40;;;1.00;;
13321;SDS011;6730;46.248;6.930;2023-09-19T05:05:11;2.28;;;0.80;;
13321;SDS011;6730;46.248;6.930;2023-09-19T05:07:42;3.28;;;1.15;;
13321;SDS011;6730;46.248;6.930;2023-09-19T05:10:08;0.68;;;0.68;;
13321;SDS011;6730;46.248;6.930;2023-09-19T05:12:35;0.85;;;0.80;;
13321;SDS011;6730;46.248;6.930;2023-09-19T05:15:05;0.70;;;0.70;;
13321;SDS011;6730;46.248;6.930;2023-09-19T05:17:34;0.85;;;0.60;;
13321;SDS011;6730;46.248;6.930;2023-09-19T05:20:01;1.13;;;0.90;;
13321;SDS011;6730;46.248;6.930;2023-09-19T05:23:05;0.60;;;0.60;;
13321;SDS011;6730;46.248;6.930;2023-09-19T05:25:34;1.35;;;0.85;;
13321;SDS011;6730;46.248;6.930;2023-09-19T05:28:10;0.73;;;0.73;;
13321;SDS011;6730;46.248;6.930;2023-09-19T05:33:28;1.75;;;1.00;;
13321;SDS011;6730;46.248;6.930;2023-09-19T05:36:08;1.10;;;0.82;;
13321;SDS011;6730;46.248;6.930;2023-09-19T05:38:52;1.52;;;0.73;;
13321;SDS011;6730;46.248;6.930;2023-09-19T05:41:35;0.70;;;0.70;;
13321;SDS011;6730;46.248;6.930;2023-09-19T05:44:14;0.57;;;0.50;;
13321;SDS011;6730;46.248;6.930;2023-09-19T05:46:45;0.70;;;0.70;;
13321;SDS011;6730;46.248;6.930;2023-09-19T05:49:13;3.92;;;0.85;;
13321;SDS011;6730;46.248;6.930;2023-09-19T05:51:46;0.95;;;0.90;;
13321;SDS011;6730;46.248;6.930;2023-09-19T05:54:28;0.70;;;0.70;;
13321;SDS011;6730;46.248;6.930;2023-09-19T05:57:17;0.70;;;0.70;;
13321;SDS011;6730;46.248;6.930;2023-09-19T05:59:50;1.25;;;0.70;;
13321;SDS011;6730;46.248;6.930;2023-09-19T06:02:20;0.63;;;0.63;;
13321;SDS011;6730;46.248;6.930;2023-09-19T06:04:46;0.80;;;0.80;;
13321;SDS011;6730;46.248;6.930;2023-09-19T06:07:20;0.68;;;0.68;;
13321;SDS011;6730;46.248;6.930;2023-09-19T06:12:41;0.82;;;0.70;;
13321;SDS011;6730;46.248;6.930;2023-09-19T06:15:15;1.00;;;0.90;;
13321;SDS011;6730;46.248;6.930;2023-09-19T06:17:50;0.70;;;0.70;;
13321;SDS011;6730;46.248;6.930;2023-09-19T06:20:20;0.70;;;0.70;;
13321;SDS011;6730;46.248;6.930;2023-09-19T06:22:50;0.70;;;0.70;;
13321;SDS011;6730;46.248;6.930;2023-09-19T06:25:24;1.35;;;0.95;;
13321;SDS011;6730;46.248;6.930;2023-09-19T06:27:52;1.65;;;0.90;;
13321;SDS011;6730;46.248;6.930;2023-09-19T06:30:21;1.25;;;0.77;;
13321;SDS011;6730;46.248;6.930;2023-09-19T06:32:54;0.63;;;0.60;;
13321;SDS011;6730;46.248;6.930;2023-09-19T06:35:23;1.10;;;0.77;;
13321;SDS011;6730;46.248;6.930;2023-09-19T06:37:51;1.35;;;0.60;;
13321;SDS011;6730;46.248;6.930;2023-09-19T06:40:17;1.00;;;0.90;;
13321;SDS011;6730;46.248;6.930;2023-09-19T06:42:47;1.80;;;0.70;;
13321;SDS011;6730;46.248;6.930;2023-09-19T06:45:16;0.73;;;0.73;;
13321;SDS011;6730;46.248;6.930;2023-09-19T06:47:48;0.80;;;0.80;;
13321;SDS011;6730;46.248;6.930;2023-09-19T06:50:24;1.70;;;0.82;;
13321;SDS011;6730;46.248;6.930;2023-09-19T06:52:51;0.73;;;0.70;;
13321;SDS011;6730;46.248;6.930;2023-09-19T06:55:18;0.85;;;0.75;;
13321;SDS011;6730;46.248;6.930;2023-09-19T06:57:48;1.25;;;0.90;;
13321;SDS011;6730;46.248;6.930;2023-09-19T07:00:14;1.00;;;0.88;;
13321;SDS011;6730;46.248;6.930;2023-09-19T07:02:44;1.73;;;0.90;;
13321;SDS011;6730;46.248;6.930;2023-09-19T07:05:10;2.35;;;0.90;;
13321;SDS011;6730;46.248;6.930;2023-09-19T07:07:36;1.33;;;1.10;;
13321;SDS011;6730;46.248;6.930;2023-09-19T07:10:02;1.20;;;1.10;;
13321;SDS011;6730;46.248;6.930;2023-09-19T07:12:33;1.73;;;0.93;;
13321;SDS011;6730;46.248;6.930;2023-09-19T07:14:59;2.67;;;1.17;;
13321;SDS011;6730;46.248;6.930;2023-09-19T07:17:24;1.23;;;1.13;;
13321;SDS011;6730;46.248;6.930;2023-09-19T07:19:55;2.42;;;1.30;;
13321;SDS011;6730;46.248;6.930;2023-09-19T07:22:23;5.25;;;1.60;;
13321;SDS011;6730;46.248;6.930;2023-09-19T07:24:51;1.98;;;1.40;;
13321;SDS011;6730;46.248;6.930;2023-09-19T07:27:17;2.30;;;1.27;;
13321;SDS011;6730;46.248;6.930;2023-09-19T07:29:43;1.27;;;1.17;;
13321;SDS011;6730;46.248;6.930;2023-09-19T07:32:09;1.35;;;1.25;;
13321;SDS011;6730;46.248;6.930;2023-09-19T07:34:36;1.23;;;0.88;;
13321;SDS011;6730;46.248;6.930;2023-09-19T07:37:05;0.90;;;0.90;;
13321;SDS011;6730;46.248;6.930;2023-09-19T07:39:31;1.08;;;0.80;;
13321;SDS011;6730;46.248;6.930;2023-09-19T07:41:57;1.50;;;0.90;;
13321;SDS011;6730;46.248;6.930;2023-09-19T07:44:23;1.23;;;1.00;;
13321;SDS011;6730;46.248;6.930;2023-09-19T07:46:50;1.20;;;1.08;;
13321;SDS011;6730;46.248;6.930;2023-09-19T07:49:17;1.08;;;0.90;;
13321;SDS011;6730;46.248;6.930;2023-09-19T07:51:44;1.08;;;0.93;;
13321;SDS011;6730;46.248;6.930;2023-09-19T07:54:12;48.38;;;3.72;;
13321;SDS011;6730;46.248;6.930;2023-09-19T07:56:39;76.78;;;5.88;;
13321;SDS011;6730;46.248;6.930;2023-09-19T07:59:09;5.70;;;1.85;;
13321;SDS011;6730;46.248;6.930;2023-09-19T08:01:37;2.35;;;1.63;;
13321;SDS011;6730;46.248;6.930;2023-09-19T08:04:04;1.63;;;1.38;;
13321;SDS011;6730;46.248;6.930;2023-09-19T08:06:30;2.75;;;1.33;;
13321;SDS011;6730;46.248;6.930;2023-09-19T08:08:56;1.55;;;1.30;;
13321;SDS011;6730;46.248;6.930;2023-09-19T08:11:22;2.85;;;2.03;;
13321;SDS011;6730;46.248;6.930;2023-09-19T08:13:49;3.55;;;2.00;;
13321;SDS011;6730;46.248;6.930;2023-09-19T08:16:15;1.70;;;1.60;;
13321;SDS011;6730;46.248;6.930;2023-09-19T08:18:43;3.88;;;1.85;;
13321;SDS011;6730;46.248;6.930;2023-09-19T08:21:22;2.25;;;1.30;;
13321;SDS011;6730;46.248;6.930;2023-09-19T08:23:56;1.80;;;1.65;;
13321;SDS011;6730;46.248;6.930;2023-09-19T08:26:25;2.13;;;1.88;;
13321;SDS011;6730;46.248;6.930;2023-09-19T08:28:55;2.95;;;1.67;;
13321;SDS011;6730;46.248;6.930;2023-09-19T08:31:20;2.53;;;2.20;;
13321;SDS011;6730;46.248;6.930;2023-09-19T08:33:47;2.97;;;2.40;;
13321;SDS011;6730;46.248;6.930;2023-09-19T08:36:17;1.85;;;1.48;;
13321;SDS011;6730;46.248;6.930;2023-09-19T08:38:45;4.28;;;1.48;;
13321;SDS011;6730;46.248;6.930;2023-09-19T08:41:20;4.32;;;1.40;;
13321;SDS011;6730;46.248;6.930;2023-09-19T08:43:49;1.98;;;1.80;;
13321;SDS011;6730;46.248;6.930;2023-09-19T08:46:18;3.17;;;1.90;;
13321;SDS011;6730;46.248;6.930;2023-09-19T08:48:57;1.85;;;1.60;;
13321;SDS011;6730;46.248;6.930;2023-09-19T08:51:30;3.35;;;1.67;;
13321;SDS011;6730;46.248;6.930;2023-09-19T08:54:22;2.75;;;1.80;;
13321;SDS011;6730;46.248;6.930;2023-09-19T08:57:01;2.55;;;1.80;;
13321;SDS011;6730;46.248;6.930;2023-09-19T08:59:35;1.70;;;1.60;;
13321;SDS011;6730;46.248;6.930;2023-09-19T09:02:09;3.35;;;2.03;;
13321;SDS011;6730;46.248;6.930;2023-09-19T09:04:38;3.92;;;2.35;;
13321;SDS011;6730;46.248;6.930;2023-09-19T09:07:14;1.85;;;1.75;;
13321;SDS011;6730;46.248;6.930;2023-09-19T09:09:44;2.45;;;1.73;;
13321;SDS011;6730;46.248;6.930;2023-09-19T09:12:13;2.13;;;1.90;;
13321;SDS011;6730;46.248;6.930;2023-09-19T09:15:10;3.58;;;2.35;;
13321;SDS011;6730;46.248;6.930;2023-09-19T09:17:41;2.22;;;1.40;;
13321;SDS011;6730;46.248;6.930;2023-09-19T09:20:08;1.90;;;1.80;;
13321;SDS011;6730;46.248;6.930;2023-09-19T09:22:37;4.88;;;1.67;;
13321;SDS011;6730;46.248;6.930;2023-09-19T09:25:18;1.65;;;1.50;;
13321;SDS011;6730;46.248;6.930;2023-09-19T09:27:51;2.53;;;2.22;;
13321;SDS011;6730;46.248;6.930;2023-09-19T09:30:36;3.65;;;2.00;;
13321;SDS011;6730;46.248;6.930;2023-09-19T09:33:09;2.05;;;1.77;;
13321;SDS011;6730;46.248;6.930;2023-09-19T09:35:50;2.15;;;1.67;;
13321;SDS011;6730;46.248;6.930;2023-09-19T09:38:48;2.45;;;1.65;;
13321;SDS011;6730;46.248;6.930;2023-09-19T09:41:16;2.72;;;1.95;;
13321;SDS011;6730;46.248;6.930;2023-09-19T09:43:54;3.70;;;1.80;;
13321;SDS011;6730;46.248;6.930;2023-09-19T09:46:20;3.67;;;1.92;;
13321;SDS011;6730;46.248;6.930;2023-09-19T09:49:02;3.40;;;2.42;;
13321;SDS011;6730;46.248;6.930;2023-09-19T09:52:02;2.38;;;1.55;;
13321;SDS011;6730;46.248;6.930;2023-09-19T09:54:35;1.98;;;1.60;;
13321;SDS011;6730;46.248;6.930;2023-09-19T09:57:06;6.78;;;1.67;;
13321;SDS011;6730;46.248;6.930;2023-09-19T09:59:53;1.92;;;1.40;;
13321;SDS011;6730;46.248;6.930;2023-09-19T10:02:29;1.92;;;1.70;;
13321;SDS011;6730;46.248;6.930;2023-09-19T10:05:13;5.20;;;1.67;;
13321;SDS011;6730;46.248;6.930;2023-09-19T10:07:51;2.08;;;1.42;;
13321;SDS011;6730;46.248;6.930;2023-09-19T10:13:32;2.13;;;1.25;;
13321;SDS011;6730;46.248;6.930;2023-09-19T10:16:09;4.97;;;1.35;;
13321;SDS011;6730;46.248;6.930;2023-09-19T10:18:43;1.45;;;1.35;;
13321;SDS011;6730;46.248;6.930;2023-09-19T10:21:20;1.40;;;1.17;;
13321;SDS011;6730;46.248;6.930;2023-09-19T10:23:49;2.65;;;1.30;;
13321;SDS011;6730;46.248;6.930;2023-09-19T10:26:32;1.92;;;1.30;;
13321;SDS011;6730;46.248;6.930;2023-09-19T10:29:23;1.90;;;1.55;;
13321;SDS011;6730;46.248;6.930;2023-09-19T10:32:19;1.70;;;1.30;;
13321;SDS011;6730;46.248;6.930;2023-09-19T10:34:51;1.63;;;1.23;;
13321;SDS011;6730;46.248;6.930;2023-09-19T10:37:20;1.85;;;1.00;;
13321;SDS011;6730;46.248;6.930;2023-09-19T10:39:57;1.17;;;1.00;;
13321;SDS011;6730;46.248;6.930;2023-09-19T10:42:24;1.17;;;1.08;;
13321;SDS011;6730;46.248;6.930;2023-09-19T10:44:56;1.52;;;1.10;;
13321;SDS011;6730;46.248;6.930;2023-09-19T10:47:28;1.42;;;1.00;;
13321;SDS011;6730;46.248;6.930;2023-09-19T10:49:56;0.80;;;0.80;;
13321;SDS011;6730;46.248;6.930;2023-09-19T10:52:24;1.98;;;1.15;;
13321;SDS011;6730;46.248;6.930;2023-09-19T10:54:57;1.25;;;1.10;;
13321;SDS011;6730;46.248;6.930;2023-09-19T10:57:26;2.20;;;1.00;;
13321;SDS011;6730;46.248;6.930;2023-09-19T11:00:02;0.88;;;0.85;;
13321;SDS011;6730;46.248;6.930;2023-09-19T11:05:43;1.08;;;0.98;;
13321;SDS011;6730;46.248;6.930;2023-09-19T11:08:51;0.90;;;0.80;;
13321;SDS011;6730;46.248;6.930;2023-09-19T11:25:53;1.25;;;0.88;;
13321;SDS011;6730;46.248;6.930;2023-09-19T11:33:30;1.10;;;0.80;;
13321;SDS011;6730;46.248;6.930;2023-09-19T11:36:34;1.10;;;0.93;;
13321;SDS011;6730;46.248;6.930;2023-09-19T11:39:24;1.95;;;0.90;;
13321;SDS011;6730;46.248;6.930;2023-09-19T11:41:55;0.90;;;0.80;;
13321;SDS011;6730;46.248;6.930;2023-09-19T11:44:36;0.90;;;0.90;;
13321;SDS011;6730;46.248;6.930;2023-09-19T11:47:06;0.90;;;0.90;;
13321;SDS011;6730;46.248;6.930;2023-09-19T11:49:43;0.73;;;0.73;;
13321;SDS011;6730;46.248;6.930;2023-09-19T11:52:21;0.77;;;0.75;;
13321;SDS011;6730;46.248;6.930;2023-09-19T11:54:54;1.75;;;0.80;;
13321;SDS011;6730;46.248;6.930;2023-09-19T11:57:26;0.77;;;0.77;;
13321;SDS011;6730;46.248;6.930;2023-09-19T11:59:55;1.17;;;0.90;;
13321;SDS011;6730;46.248;6.930;2023-09-19T12:02:42;1.75;;;0.90;;
13321;SDS011;6730;46.248;6.930;2023-09-19T12:05:12;1.10;;;0.90;;
13321;SDS011;6730;46.248;6.930;2023-09-19T12:07:46;1.25;;;1.00;;
13321;SDS011;6730;46.248;6.930;2023-09-19T12:10:15;1.52;;;0.90;;
13321;SDS011;6730;46.248;6.930;2023-09-19T12:12:52;1.25;;;1.10;;
13321;SDS011;6730;46.248;6.930;2023-09-19T12:18:05;1.38;;;1.15;;
13321;SDS011;6730;46.248;6.930;2023-09-19T12:20:57;2.25;;;0.90;;
13321;SDS011;6730;46.248;6.930;2023-09-19T12:23:27;0.88;;;0.88;;
13321;SDS011;6730;46.248;6.930;2023-09-19T12:25:54;1.25;;;1.02;;
13321;SDS011;6730;46.248;6.930;2023-09-19T12:28:30;1.73;;;1.00;;
13321;SDS011;6730;46.248;6.930;2023-09-19T12:31:39;1.00;;;0.90;;
13321;SDS011;6730;46.248;6.930;2023-09-19T12:34:26;1.33;;;1.00;;
13321;SDS011;6730;46.248;6.930;2023-09-19T12:40:00;0.88;;;0.88;;
13321;SDS011;6730;46.248;6.930;2023-09-19T12:42:47;1.35;;;0.80;;
13321;SDS011;6730;46.248;6.930;2023-09-19T12:45:20;1.70;;;0.80;;
13321;SDS011;6730;46.248;6.930;2023-09-19T12:53:59;1.85;;;1.10;;
13321;SDS011;6730;46.248;6.930;2023-09-19T12:56:25;1.00;;;0.90;;
13321;SDS011;6730;46.248;6.930;2023-09-19T12:58:54;1.20;;;0.80;;
13321;SDS011;6730;46.248;6.930;2023-09-19T13:01:24;1.52;;;1.00;;
13321;SDS011;6730;46.248;6.930;2023-09-19T13:07:05;0.88;;;0.88;;
13321;SDS011;6730;46.248;6.930;2023-09-19T13:10:10;2.00;;;0.90;;
13321;SDS011;6730;46.248;6.930;2023-09-19T13:12:49;1.50;;;1.00;;
13321;SDS011;6730;46.248;6.930;2023-09-19T13:15:17;1.20;;;0.93;;
13321;SDS011;6730;46.248;6.930;2023-09-19T13:17:57;1.30;;;0.80;;
13321;SDS011;6730;46.248;6.930;2023-09-19T13:20:38;1.08;;;1.08;;
13321;SDS011;6730;46.248;6.930;2023-09-19T13:23:25;2.65;;;0.80;;
13321;SDS011;6730;46.248;6.930;2023-09-19T13:25:52;2.88;;;0.95;;
13321;SDS011;6730;46.248;6.930;2023-09-19T13:28:20;2.25;;;1.10;;
13321;SDS011;6730;46.248;6.930;2023-09-19T13:30:58;1.92;;;1.00;;
13321;SDS011;6730;46.248;6.930;2023-09-19T13:33:23;1.23;;;0.93;;
13321;SDS011;6730;46.248;6.930;2023-09-19T13:35:51;1.50;;;1.10;;
13321;SDS011;6730;46.248;6.930;2023-09-19T13:38:17;0.95;;;0.95;;
13321;SDS011;6730;46.248;6.930;2023-09-19T13:40:59;1.58;;;1.08;;
13321;SDS011;6730;46.248;6.930;2023-09-19T13:43:33;0.95;;;0.95;;
13321;SDS011;6730;46.248;6.930;2023-09-19T13:46:01;2.15;;;0.95;;
13321;SDS011;6730;46.248;6.930;2023-09-19T13:48:44;2.53;;;0.82;;
13321;SDS011;6730;46.248;6.930;2023-09-19T13:51:12;1.67;;;0.90;;
13321;SDS011;6730;46.248;6.930;2023-09-19T13:53:50;1.55;;;0.95;;
13321;SDS011;6730;46.248;6.930;2023-09-19T13:56:17;0.82;;;0.80;;
13321;SDS011;6730;46.248;6.930;2023-09-19T13:59:26;1.02;;;0.90;;
13321;SDS011;6730;46.248;6.930;2023-09-19T14:02:00;1.20;;;1.20;;
13321;SDS011;6730;46.248;6.930;2023-09-19T14:04:28;1.13;;;0.95;;
13321;SDS011;6730;46.248;6.930;2023-09-19T14:06:59;0.80;;;0.80;;
13321;SDS011;6730;46.248;6.930;2023-09-19T14:09:34;0.85;;;0.85;;
13321;SDS011;6730;46.248;6.930;2023-09-19T14:12:18;2.83;;;0.80;;
13321;SDS011;6730;46.248;6.930;2023-09-19T14:14:49;1.10;;;0.80;;
13321;SDS011;6730;46.248;6.930;2023-09-19T14:17:21;2.63;;;1.00;;
13321;SDS011;6730;46.248;6.930;2023-09-19T14:19:51;1.45;;;0.80;;
13321;SDS011;6730;46.248;6.930;2023-09-19T14:22:26;0.90;;;0.80;;
13321;SDS011;6730;46.248;6.930;2023-09-19T14:24:51;1.02;;;0.90;;
13321;SDS011;6730;46.248;6.930;2023-09-19T14:30:12;0.80;;;0.80;;
13321;SDS011;6730;46.248;6.930;2023-09-19T14:32:38;1.15;;;0.80;;
13321;SDS011;6730;46.248;6.930;2023-09-19T14:35:04;0.77;;;0.77;;
13321;SDS011;6730;46.248;6.930;2023-09-19T14:37:31;2.00;;;1.00;;
13321;SDS011;6730;46.248;6.930;2023-09-19T14:40:03;1.17;;;1.08;;
13321;SDS011;6730;46.248;6.930;2023-09-19T14:42:34;2.38;;;0.93;;
13321;SDS011;6730;46.248;6.930;2023-09-19T14:45:06;1.15;;;0.80;;
13321;SDS011;6730;46.248;6.930;2023-09-19T14:47:45;1.45;;;0.90;;
13321;SDS011;6730;46.248;6.930;2023-09-19T14:50:17;1.65;;;0.80;;
13321;SDS011;6730;46.248;6.930;2023-09-19T14:52:43;1.90;;;0.90;;
13321;SDS011;6730;46.248;6.930;2023-09-19T14:55:12;3.30;;;1.05;;
13321;SDS011;6730;46.248;6.930;2023-09-19T14:58:12;1.17;;;1.05;;
13321;SDS011;6730;46.248;6.930;2023-09-19T15:03:16;1.95;;;1.00;;
13321;SDS011;6730;46.248;6.930;2023-09-19T15:05:47;1.10;;;1.00;;
13321;SDS011;6730;46.248;6.930;2023-09-19T15:11:37;0.93;;;0.85;;
13321;SDS011;6730;46.248;6.930;2023-09-19T15:14:05;1.13;;;0.80;;
13321;SDS011;6730;46.248;6.930;2023-09-19T15:16:38;3.00;;;1.00;;
13321;SDS011;6730;46.248;6.930;2023-09-19T15:19:27;1.30;;;1.05;;
13321;SDS011;6730;46.248;6.930;2023-09-19T15:21:56;1.67;;;1.00;;
13321;SDS011;6730;46.248;6.930;2023-09-19T15:24:35;1.95;;;0.90;;
13321;SDS011;6730;46.248;6.930;2023-09-19T15:27:02;1.08;;;0.90;;
13321;SDS011;6730;46.248;6.930;2023-09-19T15:29:28;0.75;;;0.75;;
13321;SDS011;6730;46.248;6.930;2023-09-19T15:32:01;0.93;;;0.90;;
13321;SDS011;6730;46.248;6.930;2023-09-19T15:34:33;1.48;;;1.00;;
13321;SDS011;6730;46.248;6.930;2023-09-19T15:37:04;2.97;;;1.02;;
13321;SDS011;6730;46.248;6.930;2023-09-19T15:39:32;1.13;;;0.80;;
13321;SDS011;6730;46.248;6.930;2023-09-19T15:42:02;0.90;;;0.90;;
13321;SDS011;6730;46.248;6.930;2023-09-19T15:44:41;0.80;;;0.80;;
13321;SDS011;6730;46.248;6.930;2023-09-19T15:47:14;0.98;;;0.90;;
13321;SDS011;6730;46.248;6.930;2023-09-19T15:49:45;1.38;;;0.98;;
13321;SDS011;6730;46.248;6.930;2023-09-19T15:52:11;1.48;;;0.93;;
13321;SDS011;6730;46.248;6.930;2023-09-19T15:54:37;3.00;;;1.00;;
13321;SDS011;6730;46.248;6.930;2023-09-19T15:57:08;5.43;;;1.10;;
13321;SDS011;6730;46.248;6.930;2023-09-19T15:59:39;1.00;;;0.90;;
13321;SDS011;6730;46.248;6.930;2023-09-19T16:02:05;0.80;;;0.80;;
13321;SDS011;6730;46.248;6.930;2023-09-19T16:04:30;1.00;;;0.90;;
13321;SDS011;6730;46.248;6.930;2023-09-19T16:06:56;3.03;;;0.90;;
13321;SDS011;6730;46.248;6.930;2023-09-19T16:09:21;1.20;;;1.00;;
13321;SDS011;6730;46.248;6.930;2023-09-19T16:11:47;0.93;;;0.93;;
13321;SDS011;6730;46.248;6.930;2023-09-19T16:14:19;1.25;;;0.80;;
13321;SDS011;6730;46.248;6.930;2023-09-19T16:16:51;1.23;;;1.10;;
13321;SDS011;6730;46.248;6.930;2023-09-19T16:19:39;1.73;;;1.10;;
13321;SDS011;6730;46.248;6.930;2023-09-19T16:22:23;1.05;;;1.00;;
13321;SDS011;6730;46.248;6.930;2023-09-19T16:24:56;1.80;;;1.00;;
13321;SDS011;6730;46.248;6.930;2023-09-19T16:27:43;0.88;;;0.88;;
13321;SDS011;6730;46.248;6.930;2023-09-19T16:30:15;0.90;;;0.90;;
13321;SDS011;6730;46.248;6.930;2023-09-19T16:32:44;1.30;;;1.02;;
13321;SDS011;6730;46.248;6.930;2023-09-19T16:35:14;4.68;;;1.20;;
13321;SDS011;6730;46.248;6.930;2023-09-19T16:37:51;1.75;;;1.10;;
13321;SDS011;6730;46.248;6.930;2023-09-19T16:40:25;1.02;;;0.95;;